createdAt,value
2019-04-20T00:01:45.405Z,9.80
2019-04-20T00:04:20.675Z,10.57
2019-04-20T00:06:48.374Z,10.33
2019-04-20T00:09:24.061Z,9.50
2019-04-20T00:11:56.502Z,9.63
2019-04-20T00:14:24.019Z,10.27
2019-04-20T00:16:50.575Z,10.03
2019-04-20T00:19:26.150Z,9.67
2019-04-20T00:21:58.575Z,10.30
2019-04-20T00:24:35.385Z,10.03
2019-04-20T00:27:25.748Z,10.77
2019-04-20T00:29:51.071Z,10.07
2019-04-20T00:32:14.582Z,10.30
2019-04-20T00:34:39.844Z,9.38
2019-04-20T00:37:06.990Z,9.80
2019-04-20T00:39:38.349Z,9.57
2019-04-20T00:42:11.246Z,9.37
2019-04-20T00:44:42.167Z,9.67
2019-04-20T00:47:21.871Z,9.73
2019-04-20T00:49:52.328Z,10.10
2019-04-20T00:52:27.425Z,10.20
2019-04-20T00:54:47.352Z,10.00
2019-04-20T00:57:24.697Z,10.48
2019-04-20T01:00:04.684Z,10.40
2019-04-20T01:02:32.715Z,10.93
2019-04-20T01:05:04.205Z,10.30
2019-04-20T01:07:37.374Z,11.20
2019-04-20T01:10:09.121Z,10.28
2019-04-20T01:12:41.022Z,11.27
2019-04-20T01:15:16.869Z,11.17
2019-04-20T01:17:41.480Z,10.67
2019-04-20T01:20:10.873Z,11.30
2019-04-20T01:22:48.399Z,10.97
2019-04-20T01:25:19.557Z,11.33
2019-04-20T01:28:06.646Z,11.70
2019-04-20T01:30:24.893Z,11.10
2019-04-20T01:33:07.816Z,11.57
2019-04-20T01:35:44.111Z,11.45
2019-04-20T01:38:16.651Z,11.67
2019-04-20T01:40:29.580Z,11.60
2019-04-20T01:42:59.415Z,11.97
2019-04-20T01:45:34.132Z,11.90
2019-04-20T01:48:02.868Z,10.53
2019-04-20T01:50:34.946Z,11.75
2019-04-20T01:53:12.368Z,11.33
2019-04-20T01:55:49.374Z,11.05
2019-04-20T01:58:33.746Z,12.43
2019-04-20T02:00:48.081Z,12.10
2019-04-20T02:03:39.466Z,11.57
2019-04-20T02:06:16.778Z,11.53
2019-04-20T02:08:42.188Z,13.60
2019-04-20T02:11:18.713Z,11.57
2019-04-20T02:13:47.987Z,11.60
2019-04-20T02:16:22.989Z,13.03
2019-04-20T02:19:03.027Z,12.47
2019-04-20T02:21:28.678Z,13.67
2019-04-20T02:23:51.506Z,13.70
2019-04-20T02:26:16.287Z,13.87
2019-04-20T02:29:14.502Z,13.97
2019-04-20T02:32:04.690Z,13.73
2019-04-20T02:34:26.135Z,14.70
2019-04-20T02:42:03.874Z,14.27
2019-04-20T02:44:30.589Z,14.43
2019-04-20T02:49:35.422Z,14.03
2019-04-20T02:57:15.010Z,15.47
2019-04-20T03:01:55.362Z,14.77
2019-04-20T03:04:20.546Z,16.63
2019-04-20T03:06:54.800Z,15.43
2019-04-20T03:09:32.833Z,16.03
2019-04-20T03:12:04.905Z,16.10
2019-04-20T03:14:26.573Z,15.93
2019-04-20T03:17:08.179Z,16.45
2019-04-20T03:19:23.353Z,16.50
2019-04-20T03:22:05.240Z,16.60
2019-04-20T03:24:37.592Z,18.02
2019-04-20T03:26:59.896Z,17.85
2019-04-20T03:29:46.893Z,17.17
2019-04-20T03:32:49.987Z,17.83
2019-04-20T03:37:34.589Z,18.53
2019-04-20T03:39:52.975Z,18.80
2019-04-20T03:42:07.540Z,18.07
2019-04-20T03:44:37.956Z,19.03
2019-04-20T03:47:11.563Z,18.80
2019-04-20T03:49:59.651Z,19.40
2019-04-20T03:52:31.347Z,18.40
2019-04-20T03:55:07.612Z,18.67
2019-04-20T03:57:42.177Z,18.60
2019-04-20T04:00:24.991Z,18.00
2019-04-20T04:03:08.375Z,18.07
2019-04-20T04:05:33.977Z,19.32
2019-04-20T04:07:52.409Z,19.80
2019-04-20T04:10:31.650Z,18.23
2019-04-20T04:13:11.795Z,17.40
2019-04-20T04:15:48.261Z,17.13
2019-04-20T04:18:21.858Z,17.33
2019-04-20T04:20:58.714Z,16.03
2019-04-20T04:23:40.418Z,16.17
2019-04-20T04:26:08.616Z,16.27
2019-04-20T04:28:42.292Z,16.00
2019-04-20T04:31:12.794Z,16.70
2019-04-20T04:36:15.280Z,16.20
2019-04-20T04:38:48.762Z,16.55
2019-04-20T04:41:35.472Z,15.83
2019-04-20T04:43:47.360Z,16.70
2019-04-20T04:46:01.778Z,15.70
2019-04-20T04:48:35.564Z,17.10
2019-04-20T04:51:10.424Z,16.57
2019-04-20T04:53:44.203Z,16.83
2019-04-20T04:56:07.300Z,15.93
2019-04-20T04:58:36.173Z,17.43
2019-04-20T05:01:14.541Z,16.17
2019-04-20T05:04:02.900Z,16.95
2019-04-20T05:06:37.462Z,15.27
2019-04-20T05:08:51.387Z,15.27
2019-04-20T05:11:19.635Z,16.15
2019-04-20T05:13:58.500Z,15.70
2019-04-20T05:16:43.229Z,16.00
2019-04-20T05:19:17.352Z,15.85
2019-04-20T05:21:55.216Z,15.43
2019-04-20T05:24:29.249Z,15.77
2019-04-20T05:27:07.221Z,14.97
2019-04-20T05:29:22.513Z,14.90
2019-04-20T05:31:53.723Z,15.60
2019-04-20T05:34:38.974Z,15.03
2019-04-20T05:37:17.595Z,15.73
2019-04-20T05:39:38.496Z,15.37
2019-04-20T05:42:16.196Z,14.13
2019-04-20T05:44:46.183Z,14.10
2019-04-20T05:47:11.057Z,14.68
2019-04-20T05:49:45.323Z,15.60
2019-04-20T05:52:31.067Z,14.53
2019-04-20T05:54:53.524Z,14.97
2019-04-20T05:57:25.247Z,15.00
2019-04-20T05:59:56.204Z,15.10
2019-04-20T06:02:30.604Z,14.80
2019-04-20T06:07:25.259Z,16.10
2019-04-20T06:10:00.242Z,14.33
2019-04-20T06:12:31.689Z,15.70
2019-04-20T06:15:02.692Z,14.77
2019-04-20T06:17:39.715Z,15.17
2019-04-20T06:20:12.612Z,14.77
2019-04-20T06:22:41.435Z,14.50
2019-04-20T06:25:33.490Z,16.03
2019-04-20T06:28:02.853Z,16.87
2019-04-20T06:30:14.079Z,18.03
2019-04-20T06:33:38.657Z,19.13
2019-04-20T06:38:48.254Z,18.80
2019-04-20T06:41:10.599Z,18.77
2019-04-20T06:43:40.857Z,17.52
2019-04-20T06:46:12.936Z,15.23
2019-04-20T06:48:40.196Z,14.33
2019-04-20T06:51:01.822Z,14.37
2019-04-20T06:53:46.554Z,14.45
2019-04-20T06:56:15.689Z,13.90
2019-04-20T07:01:10.558Z,14.13
2019-04-20T07:04:19.031Z,14.20
2019-04-20T07:06:29.338Z,13.98
2019-04-20T07:08:57.314Z,14.57
2019-04-20T07:11:23.471Z,14.67
2019-04-20T07:13:42.822Z,14.40
2019-04-20T07:16:34.863Z,14.43
2019-04-20T07:19:15.355Z,13.90
2019-04-20T07:22:06.971Z,13.80
2019-04-20T07:24:25.516Z,14.40
2019-04-20T07:26:55.565Z,12.77
2019-04-20T07:29:26.072Z,13.33
2019-04-20T07:31:48.675Z,13.60
2019-04-20T07:34:28.048Z,13.13
2019-04-20T07:37:21.680Z,14.27
2019-04-20T07:39:32.867Z,13.73
2019-04-20T07:42:08.179Z,13.67
2019-04-20T07:44:43.984Z,13.43
2019-04-20T07:47:07.675Z,13.48
2019-04-20T07:49:36.874Z,13.63
2019-04-20T07:51:46.085Z,13.43
2019-04-20T07:54:48.610Z,13.53
2019-04-20T07:57:04.014Z,14.17
2019-04-20T07:59:27.642Z,14.03
2019-04-20T08:02:35.519Z,13.22
2019-04-20T08:04:59.432Z,13.87
2019-04-20T08:07:14.524Z,14.40
2019-04-20T08:09:51.293Z,12.77
2019-04-20T08:12:51.787Z,13.70
2019-04-20T08:15:21.851Z,13.50
2019-04-20T08:17:52.538Z,13.50
2019-04-20T08:20:17.322Z,13.53
2019-04-20T08:22:47.741Z,13.07
2019-04-20T08:25:08.240Z,12.40
2019-04-20T08:27:48.690Z,12.37
2019-04-20T08:30:41.309Z,13.27
2019-04-20T08:33:20.843Z,11.90
2019-04-20T08:35:58.482Z,13.17
2019-04-20T08:38:56.252Z,12.07
2019-04-20T08:40:53.530Z,11.90
2019-04-20T08:43:37.998Z,12.30
2019-04-20T08:45:58.751Z,12.23
2019-04-20T08:48:32.909Z,12.40
2019-04-20T08:51:03.604Z,13.15
2019-04-20T08:53:36.322Z,12.20
2019-04-20T08:56:00.254Z,12.27
2019-04-20T08:58:17.976Z,13.33
2019-04-20T09:00:53.630Z,12.30
2019-04-20T09:03:26.644Z,12.17
2019-04-20T09:05:57.762Z,11.47
2019-04-20T09:08:29.526Z,11.28
2019-04-20T09:11:10.274Z,12.20
2019-04-20T09:13:34.264Z,11.80
2019-04-20T09:15:57.779Z,11.97
2019-04-20T09:18:43.277Z,11.83
2019-04-20T09:21:13.981Z,12.10
2019-04-20T09:23:52.210Z,10.97
2019-04-20T09:26:29.760Z,11.30
2019-04-20T09:28:56.865Z,11.10
2019-04-20T09:31:33.180Z,11.27
2019-04-20T09:34:12.419Z,11.73
2019-04-20T09:36:51.357Z,11.50
2019-04-20T09:39:22.460Z,12.33
2019-04-20T09:42:00.722Z,11.80
2019-04-20T09:44:30.467Z,12.07
2019-04-20T09:47:00.438Z,12.53
2019-04-20T09:49:42.546Z,10.40
2019-04-20T09:52:17.035Z,9.90
2019-04-20T09:54:52.847Z,9.47
2019-04-20T09:57:27.601Z,10.03
2019-04-20T09:59:55.419Z,11.03
2019-04-20T10:02:15.709Z,10.90
2019-04-20T10:04:41.682Z,10.43
2019-04-20T10:07:14.257Z,10.00
2019-04-20T10:09:44.572Z,11.13
2019-04-20T10:12:13.575Z,9.90
2019-04-20T10:14:42.725Z,11.40
2019-04-20T10:17:13.688Z,10.70
2019-04-20T10:19:44.511Z,9.77
2019-04-20T10:22:13.131Z,10.20
2019-04-20T10:24:51.827Z,11.33
2019-04-20T10:27:20.957Z,9.37
2019-04-20T10:29:51.348Z,9.68
2019-04-20T10:32:25.045Z,10.20
2019-04-20T10:34:52.834Z,9.70
2019-04-20T10:37:24.200Z,8.87
2019-04-20T10:39:58.435Z,8.83
2019-04-20T10:42:28.105Z,8.00
2019-04-20T10:45:00.713Z,8.98
2019-04-20T10:47:30.825Z,10.72
2019-04-20T10:50:01.069Z,9.10
2019-04-20T10:52:33.957Z,7.47
2019-04-20T10:55:02.919Z,6.70
2019-04-20T10:57:31.537Z,7.97
2019-04-20T11:00:01.591Z,6.17
2019-04-20T11:02:32.133Z,6.10
2019-04-20T11:05:00.749Z,8.20
2019-04-20T11:07:32.531Z,9.03
2019-04-20T11:10:13.367Z,8.00
2019-04-20T11:12:35.886Z,7.87
2019-04-20T11:15:08.111Z,7.57
2019-04-20T11:17:39.475Z,7.90
2019-04-20T11:20:09.651Z,7.83
2019-04-20T11:22:38.335Z,7.23
2019-04-20T11:25:10.343Z,7.40
2019-04-20T11:27:38.987Z,8.10
2019-04-20T11:30:10.340Z,7.50
2019-04-20T11:32:40.103Z,7.17
2019-04-20T11:35:19.989Z,7.60
2019-04-20T11:37:40.683Z,7.50
2019-04-20T11:40:10.769Z,7.13
2019-04-20T11:42:41.653Z,7.47
2019-04-20T11:45:10.984Z,7.90
2019-04-20T11:47:40.291Z,8.00
2019-04-20T11:50:09.521Z,8.60
2019-04-20T11:52:43.851Z,7.93
2019-04-20T11:55:10.504Z,7.57
2019-04-20T11:57:43.150Z,7.37
2019-04-20T12:00:23.473Z,7.60
2019-04-20T12:03:11.156Z,8.33
2019-04-20T12:05:40.800Z,7.73
2019-04-20T12:08:07.244Z,8.40
2019-04-20T12:10:37.207Z,7.67
2019-04-20T12:13:07.767Z,8.33
2019-04-20T12:15:38.631Z,8.63
2019-04-20T12:18:09.582Z,8.50
2019-04-20T12:20:38.951Z,9.10
2019-04-20T12:23:10.254Z,8.07
2019-04-20T12:25:40.854Z,7.90
2019-04-20T12:28:09.649Z,7.23
2019-04-20T12:30:39.615Z,8.40
2019-04-20T12:33:09.462Z,9.97
2019-04-20T12:35:40.321Z,8.60
2019-04-20T12:38:10.492Z,9.13
2019-04-20T12:40:39.950Z,7.87
2019-04-20T12:43:10.978Z,10.50
2019-04-20T12:45:42.056Z,9.30
2019-04-20T12:48:13.620Z,7.77
2019-04-20T12:50:46.068Z,8.70
2019-04-20T12:53:14.894Z,8.97
2019-04-20T12:55:46.549Z,8.50
2019-04-20T12:58:16.615Z,8.20
2019-04-20T13:00:49.597Z,8.15
2019-04-20T13:03:21.443Z,7.80
2019-04-20T13:05:54.379Z,7.43
2019-04-20T13:08:33.284Z,8.07
2019-04-20T13:11:00.407Z,8.40
2019-04-20T13:13:48.484Z,8.20
2019-04-20T13:16:22.625Z,8.40
2019-04-20T13:18:53.046Z,8.57
2019-04-20T13:21:22.869Z,8.38
2019-04-20T13:23:53.174Z,8.17
2019-04-20T13:26:22.644Z,8.27
2019-04-20T13:28:52.931Z,7.77
2019-04-20T13:31:24.081Z,7.70
2019-04-20T13:33:54.939Z,7.63
2019-04-20T13:36:26.746Z,8.43
2019-04-20T13:38:56.404Z,8.00
2019-04-20T13:41:27.717Z,7.67
2019-04-20T13:43:59.275Z,7.43
2019-04-20T13:46:27.159Z,8.30
2019-04-20T13:48:57.197Z,7.90
2019-04-20T13:51:26.574Z,7.30
2019-04-20T13:53:57.270Z,6.70
2019-04-20T13:56:27.745Z,7.10
2019-04-20T13:59:01.814Z,7.03
2019-04-20T14:01:44.605Z,8.03
2019-04-20T14:04:21.468Z,7.40
2019-04-20T14:06:53.230Z,8.10
2019-04-20T14:09:23.552Z,7.58
2019-04-20T14:11:53.561Z,8.27
2019-04-20T14:14:23.474Z,8.20
2019-04-20T14:16:54.799Z,7.78
2019-04-20T14:19:23.588Z,9.00
2019-04-20T14:21:54.250Z,8.97
2019-04-20T14:24:26.705Z,8.93
2019-04-20T14:26:56.887Z,8.43
2019-04-20T14:29:25.693Z,9.13
2019-04-20T14:31:59.877Z,9.77
2019-04-20T14:34:31.100Z,9.03
2019-04-20T14:37:00.251Z,8.03
2019-04-20T14:39:30.227Z,8.90
2019-04-20T14:42:02.310Z,9.40
2019-04-20T14:44:33.932Z,8.78
2019-04-20T14:47:03.631Z,8.70
2019-04-20T14:49:36.693Z,8.57
2019-04-20T14:52:06.380Z,8.40
2019-04-20T14:54:35.192Z,7.77
2019-04-20T14:57:03.791Z,7.13
2019-04-20T14:59:34.010Z,8.17
2019-04-20T15:02:12.863Z,8.27
2019-04-20T15:04:43.310Z,7.93
2019-04-20T15:07:13.341Z,8.48
2019-04-20T15:09:42.770Z,8.97
2019-04-20T15:12:12.956Z,9.05
2019-04-20T15:14:46.845Z,8.90
2019-04-20T15:17:21.748Z,9.57
2019-04-20T15:19:52.109Z,9.90
2019-04-20T15:22:31.669Z,9.77
2019-04-20T15:25:00.354Z,9.73
2019-04-20T15:27:30.381Z,10.73
2019-04-20T15:30:00.176Z,10.63
2019-04-20T15:32:31.347Z,9.67
2019-04-20T15:35:00.689Z,9.90
2019-04-20T15:37:30.933Z,8.20
2019-04-20T15:39:59.629Z,8.40
2019-04-20T15:42:29.570Z,8.83
2019-04-20T15:44:59.103Z,7.80
2019-04-20T15:47:27.985Z,10.28
2019-04-20T15:49:58.397Z,8.53
2019-04-20T15:52:33.587Z,8.87
2019-04-20T15:55:03.080Z,8.97
2019-04-20T15:57:31.686Z,9.80
2019-04-20T16:00:00.591Z,9.60
2019-04-20T16:02:31.570Z,9.80
2019-04-20T16:05:19.625Z,8.80
2019-04-20T16:07:54.889Z,9.20
2019-04-20T16:10:21.319Z,9.40
2019-04-20T16:13:04.829Z,9.50
2019-04-20T16:15:22.075Z,11.17
2019-04-20T16:17:53.247Z,9.43
2019-04-20T16:20:25.042Z,8.70
2019-04-20T16:23:00.665Z,8.87
2019-04-20T16:25:35.223Z,8.55
2019-04-20T16:28:05.622Z,9.23
2019-04-20T16:30:38.002Z,8.20
2019-04-20T16:33:08.347Z,7.60
2019-04-20T16:35:38.288Z,9.10
2019-04-20T16:38:08.704Z,8.33
2019-04-20T16:40:37.775Z,8.90
2019-04-20T16:43:18.010Z,9.03
2019-04-20T16:45:39.146Z,8.53
2019-04-20T16:48:10.532Z,9.37
2019-04-20T16:50:39.044Z,8.37
2019-04-20T16:53:08.778Z,9.30
2019-04-20T16:55:38.899Z,9.70
2019-04-20T16:58:08.136Z,9.03
2019-04-20T17:00:37.695Z,8.57
2019-04-20T17:03:07.029Z,8.23
2019-04-20T17:05:39.106Z,8.50
2019-04-20T17:08:08.957Z,9.63
2019-04-20T17:10:39.206Z,8.73
2019-04-20T17:13:09.309Z,8.13
2019-04-20T17:15:37.903Z,8.50
2019-04-20T17:18:07.623Z,8.03
2019-04-20T17:20:36.823Z,7.77
2019-04-20T17:23:07.372Z,7.10
2019-04-20T17:25:35.863Z,7.97
2019-04-20T17:28:22.738Z,7.40
2019-04-20T17:30:53.118Z,7.90
2019-04-20T17:33:27.892Z,8.25
2019-04-20T17:36:04.431Z,7.73
2019-04-20T17:38:36.114Z,8.93
2019-04-20T17:41:15.649Z,8.30
2019-04-20T17:43:37.111Z,7.93
2019-04-20T17:46:08.150Z,8.33
2019-04-20T17:48:39.935Z,9.10
2019-04-20T17:51:24.527Z,8.73
2019-04-20T17:53:51.128Z,8.45
2019-04-20T17:56:12.258Z,9.27
2019-04-20T17:58:41.527Z,9.07
2019-04-20T18:01:23.009Z,8.47
2019-04-20T18:04:18.730Z,9.03
2019-04-20T18:06:41.680Z,8.73
2019-04-20T18:09:05.336Z,8.65
2019-04-20T18:11:24.347Z,8.90
2019-04-20T18:13:58.896Z,9.80
2019-04-20T18:17:04.216Z,9.57
2019-04-20T18:19:22.922Z,9.10
2019-04-20T18:21:53.732Z,8.80
2019-04-20T18:24:42.332Z,8.60
2019-04-20T18:27:14.216Z,7.90
2019-04-20T18:29:50.358Z,9.20
2019-04-20T18:32:13.849Z,9.37
2019-04-20T18:34:54.131Z,9.03
2019-04-20T18:37:21.224Z,8.70
2019-04-20T18:39:57.383Z,9.50
2019-04-20T18:42:26.976Z,9.77
2019-04-20T18:45:08.930Z,8.50
2019-04-20T18:47:40.584Z,8.47
2019-04-20T18:50:04.495Z,9.30
2019-04-20T18:52:22.033Z,9.83
2019-04-20T18:54:53.634Z,9.80
2019-04-20T18:57:26.059Z,10.27
2019-04-20T18:59:54.808Z,8.97
2019-04-20T19:02:27.399Z,9.27
2019-04-20T19:04:54.533Z,10.60
2019-04-20T19:07:23.763Z,10.50
2019-04-20T19:10:00.395Z,10.47
2019-04-20T19:12:33.271Z,10.70
2019-04-20T19:15:28.003Z,11.00
2019-04-20T19:18:03.028Z,10.55
2019-04-20T19:20:27.004Z,11.20
2019-04-20T19:22:55.804Z,11.43
2019-04-20T19:25:27.375Z,11.13
2019-04-20T19:27:57.759Z,11.77
2019-04-20T19:30:35.333Z,11.33
2019-04-20T19:33:14.932Z,12.07
2019-04-20T19:35:40.567Z,12.40
2019-04-20T19:38:06.398Z,11.60
2019-04-20T19:40:38.586Z,12.37
2019-04-20T19:43:10.942Z,12.80
2019-04-20T19:45:46.655Z,12.93
2019-04-20T19:48:14.607Z,13.30
2019-04-20T19:50:54.645Z,14.23
2019-04-20T19:53:21.193Z,13.77
2019-04-20T19:55:43.832Z,13.67
2019-04-20T19:58:14.028Z,13.55
2019-04-20T20:00:55.328Z,15.53
2019-04-20T20:03:23.907Z,14.37
2019-04-20T20:05:54.731Z,15.30
2019-04-20T20:08:26.035Z,16.33
2019-04-20T20:10:54.803Z,15.87
2019-04-20T20:13:27.371Z,15.17
2019-04-20T20:16:02.275Z,13.77
2019-04-20T20:18:41.352Z,13.33
2019-04-20T20:21:07.331Z,13.97
2019-04-20T20:23:25.804Z,13.53
2019-04-20T20:25:54.850Z,14.13
2019-04-20T20:28:34.555Z,12.77
2019-04-20T20:31:04.439Z,12.30
2019-04-20T20:33:41.114Z,12.37
2019-04-20T20:36:05.567Z,12.13
2019-04-20T20:38:35.810Z,12.27
2019-04-20T20:41:08.979Z,11.10
2019-04-20T20:43:40.673Z,12.80
2019-04-20T20:46:13.258Z,12.17
2019-04-20T20:48:49.980Z,11.63
2019-04-20T20:51:15.197Z,11.10
2019-04-20T20:53:43.921Z,10.67
2019-04-20T20:56:07.923Z,10.63
2019-04-20T20:58:43.843Z,11.43
2019-04-20T21:01:09.660Z,12.03
2019-04-20T21:03:36.539Z,11.40
2019-04-20T21:06:00.880Z,10.98
2019-04-20T21:08:29.450Z,11.93
2019-04-20T21:10:58.038Z,10.93
2019-04-20T21:13:33.352Z,11.30
2019-04-20T21:16:02.931Z,10.58
2019-04-20T21:18:47.277Z,10.67
2019-04-20T21:21:11.735Z,10.38
2019-04-20T21:23:38.894Z,9.83
2019-04-20T21:26:17.000Z,9.20
2019-04-20T21:28:41.951Z,9.37
2019-04-20T21:31:16.379Z,9.93
2019-04-20T21:33:42.783Z,11.03
2019-04-20T21:36:13.466Z,10.70
2019-04-20T21:38:44.338Z,9.63
2019-04-20T21:41:16.502Z,11.53
2019-04-20T21:43:44.673Z,10.73
2019-04-20T21:46:13.996Z,10.53
2019-04-20T21:48:55.910Z,10.23
2019-04-20T21:51:30.079Z,10.93
2019-04-20T21:53:44.317Z,10.73
2019-04-20T21:56:13.176Z,11.63
2019-04-20T21:58:49.696Z,10.97
2019-04-20T22:01:24.285Z,11.77
2019-04-20T22:03:44.742Z,11.67
2019-04-20T22:06:14.207Z,12.80
2019-04-20T22:08:46.871Z,12.47
2019-04-20T22:11:13.585Z,12.80
2019-04-20T22:13:46.396Z,13.10
2019-04-20T22:16:16.697Z,13.50
2019-04-20T22:18:54.034Z,14.40
2019-04-20T22:21:25.454Z,13.47
2019-04-20T22:24:04.235Z,13.13
2019-04-20T22:26:30.281Z,13.47
2019-04-20T22:28:47.965Z,15.70
2019-04-20T22:33:52.386Z,13.40
2019-04-20T22:36:26.062Z,13.07
2019-04-20T22:39:09.574Z,13.20
2019-04-20T22:41:47.934Z,12.80
2019-04-20T22:44:19.349Z,12.30
2019-04-20T22:46:45.749Z,13.13
2019-04-20T22:49:32.970Z,12.80
2019-04-20T22:51:55.573Z,12.07
2019-04-20T22:54:36.446Z,11.80
2019-04-20T22:57:03.335Z,11.70
2019-04-20T22:59:37.453Z,11.67
2019-04-20T23:02:00.557Z,11.50
2019-04-20T23:04:28.732Z,11.90
2019-04-20T23:06:59.175Z,11.83
2019-04-20T23:09:28.726Z,11.87
2019-04-20T23:12:03.553Z,11.87
2019-04-20T23:14:32.126Z,11.85
2019-04-20T23:17:02.010Z,12.50
2019-04-20T23:19:41.662Z,12.27
2019-04-20T23:22:05.339Z,13.37
2019-04-20T23:24:33.205Z,13.73
2019-04-20T23:27:04.402Z,14.58
2019-04-20T23:29:36.440Z,14.80
2019-04-20T23:32:10.347Z,14.43
2019-04-20T23:34:39.011Z,15.00
2019-04-20T23:37:16.057Z,15.37
2019-04-20T23:39:41.594Z,15.83
2019-04-20T23:42:11.175Z,16.10
2019-04-20T23:44:54.329Z,16.07
2019-04-20T23:47:24.106Z,14.77
2019-04-20T23:50:12.292Z,15.30
2019-04-20T23:52:49.715Z,14.57
2019-04-20T23:55:04.039Z,15.00
2019-04-20T23:57:27.859Z,13.83
2019-04-20T23:59:56.467Z,13.85
